Time;durP1;ratioP1;P1;durP2;ratioP2;P2;SDS_P1;SDS_P2;PMS_P1;PMS_P2;Temp;Humidity;BMP_temperature;BMP_pressure;BME280_temperature;BME280_humidity;BME280_pressure;Samples;Min_cycle;Max_cycle;Signal;HPM_P1;HPM_P2
2024/01/02 00:00:23;;;;;;;8.40;4.60;;;6.70;99.90;;;;;;5090392;28;20225;-61
2024/01/02 00:02:50;;;;;;;5.40;3.50;;;6.70;99.90;;;;;;5086573;28;20317;-61
2024/01/02 00:05:17;;;;;;;11.20;4.05;;;6.70;99.90;;;;;;5076317;28;20297;-62
2024/01/02 00:07:44;;;;;;;3.42;2.50;;;6.80;99.90;;;;;;5089069;28;20204;-61
2024/01/02 00:10:11;;;;;;;8.98;3.10;;;6.80;99.90;;;;;;5090450;28;20225;-62
2024/01/02 00:12:38;;;;;;;21.73;4.28;;;6.80;99.90;;;;;;5084704;28;20289;-61
2024/01/02 00:15:06;;;;;;;3.25;2.88;;;6.80;99.90;;;;;;5083441;28;20213;-61
2024/01/02 00:17:34;;;;;;;6.20;2.50;;;6.80;99.90;;;;;;5092955;28;20247;-62
2024/01/02 00:20:02;;;;;;;3.65;1.90;;;6.80;99.90;;;;;;5080679;28;20225;-61
2024/01/02 00:22:29;;;;;;;7.47;2.30;;;6.80;99.90;;;;;;5093059;28;20316;-62
2024/01/02 00:24:56;;;;;;;3.58;1.98;;;6.80;99.90;;;;;;5094627;28;20293;-62
2024/01/02 00:27:23;;;;;;;3.83;1.75;;;6.80;99.90;;;;;;5093895;28;20648;-61
2024/01/02 00:29:49;;;;;;;2.20;1.98;;;6.80;99.90;;;;;;5093974;28;20223;-61
2024/01/02 00:32:16;;;;;;;4.82;1.73;;;6.80;99.90;;;;;;5089542;28;20205;-61
2024/01/02 00:34:44;;;;;;;7.07;1.83;;;6.80;99.90;;;;;;5082584;28;20208;-61
2024/01/02 00:37:11;;;;;;;5.93;1.42;;;6.80;99.90;;;;;;5090063;28;20697;-61
2024/01/02 00:39:38;;;;;;;3.00;2.80;;;6.80;99.90;;;;;;5082635;28;20224;-62
2024/01/02 00:42:05;;;;;;;2.15;1.63;;;6.80;99.90;;;;;;5089554;28;20300;-62
2024/01/02 00:44:32;;;;;;;2.50;2.03;;;6.80;99.90;;;;;;5078196;28;20212;-61
2024/01/02 00:46:59;;;;;;;5.07;1.90;;;6.80;99.90;;;;;;5090185;28;20197;-60
2024/01/02 00:49:26;;;;;;;3.70;1.05;;;6.80;99.90;;;;;;5086359;28;20242;-60
2024/01/02 00:51:54;;;;;;;1.40;1.17;;;6.80;99.90;;;;;;5083972;28;20674;-60
2024/01/02 00:54:21;;;;;;;2.40;1.77;;;6.80;99.90;;;;;;5093868;28;20207;-61
2024/01/02 00:56:48;;;;;;;6.93;3.00;;;6.80;99.90;;;;;;5093448;28;20647;-60
2024/01/02 00:59:15;;;;;;;8.40;1.77;;;6.90;99.90;;;;;;5093208;28;20229;-60
2024/01/02 01:01:42;;;;;;;7.25;2.88;;;6.90;99.90;;;;;;5093390;28;20201;-61
2024/01/02 01:04:09;;;;;;;2.40;1.23;;;6.90;99.90;;;;;;5093378;28;20229;-60
2024/01/02 01:06:36;;;;;;;2.25;1.38;;;6.90;99.90;;;;;;5093436;28;20213;-62
2024/01/02 01:09:05;;;;;;;2.85;1.52;;;6.90;99.90;;;;;;5093031;28;20236;-62
2024/01/02 01:11:31;;;;;;;9.65;1.92;;;6.90;99.90;;;;;;5092538;28;20296;-62
2024/01/02 01:13:58;;;;;;;3.97;1.70;;;7.00;99.90;;;;;;5090085;28;20320;-61
2024/01/02 01:16:25;;;;;;;4.05;1.50;;;7.00;99.90;;;;;;5093572;28;20224;-62
2024/01/02 01:18:52;;;;;;;1.55;1.45;;;7.00;99.90;;;;;;5087529;28;20212;-61
2024/01/02 01:21:19;;;;;;;1.60;1.13;;;7.00;99.90;;;;;;5093591;28;20211;-61
2024/01/02 01:23:46;;;;;;;2.25;1.70;;;7.00;99.90;;;;;;5092007;28;20236;-61
2024/01/02 01:26:14;;;;;;;1.33;1.23;;;7.00;99.90;;;;;;5093428;28;20201;-62
2024/01/02 01:28:41;;;;;;;2.88;1.60;;;7.00;99.90;;;;;;5092970;28;20659;-61
2024/01/02 01:31:08;;;;;;;3.15;1.35;;;7.00;99.90;;;;;;5093043;28;20301;-61
2024/01/02 01:33:34;;;;;;;1.10;0.98;;;7.00;99.90;;;;;;5093320;28;20284;-61
2024/01/02 01:36:01;;;;;;;3.55;1.60;;;7.10;99.90;;;;;;5093521;28;20821;-61
2024/01/02 01:38:28;;;;;;;3.53;1.50;;;7.10;99.90;;;;;;5093011;28;20215;-61
2024/01/02 01:40:55;;;;;;;2.95;1.63;;;7.10;99.90;;;;;;5093170;28;20262;-61
2024/01/02 01:43:23;;;;;;;3.33;1.90;;;7.10;99.90;;;;;;5092712;28;20683;-60
2024/01/02 01:45:50;;;;;;;2.85;1.65;;;7.10;99.90;;;;;;5092840;28;20205;-61
2024/01/02 01:48:17;;;;;;;2.72;1.40;;;7.10;99.90;;;;;;5092965;28;20292;-62
2024/01/02 01:50:44;;;;;;;1.95;1.15;;;7.10;99.90;;;;;;5092325;28;20239;-61
2024/01/02 01:53:11;;;;;;;2.35;1.48;;;7.10;99.90;;;;;;5091697;28;20293;-62
2024/01/02 01:55:38;;;;;;;1.90;1.20;;;7.10;99.90;;;;;;5090798;28;20288;-61
2024/01/02 01:58:05;;;;;;;2.03;1.38;;;7.10;99.90;;;;;;5092628;28;20219;-62
2024/01/02 02:00:35;;;;;;;1.65;1.55;;;7.10;99.90;;;;;;5092580;28;20220;-61
2024/01/02 02:03:02;;;;;;;3.13;1.45;;;7.00;99.90;;;;;;5092577;28;20952;-60
2024/01/02 02:05:30;;;;;;;2.78;1.55;;;7.00;99.90;;;;;;5092530;28;20211;-61
2024/01/02 02:07:57;;;;;;;2.88;1.15;;;7.00;99.90;;;;;;5092631;28;20201;-61
2024/01/02 02:10:24;;;;;;;3.42;1.40;;;7.00;99.90;;;;;;5092200;28;20225;-61
2024/01/02 02:12:52;;;;;;;3.40;1.00;;;6.90;99.90;;;;;;5092510;28;20201;-60
2024/01/02 02:15:19;;;;;;;3.30;1.52;;;6.90;99.90;;;;;;5092647;28;20631;-60
2024/01/02 02:17:47;;;;;;;3.90;1.40;;;6.90;99.90;;;;;;5092466;28;20583;-61
2024/01/02 02:20:14;;;;;;;3.60;1.77;;;6.80;99.90;;;;;;5092139;28;20225;-61
2024/01/02 02:22:46;;;;;;;1.45;1.35;;;6.80;99.90;;;;;;5092324;28;20315;-59
2024/01/02 02:25:15;;;;;;;4.10;1.67;;;6.70;99.90;;;;;;5092070;28;20205;-61
2024/01/02 02:27:42;;;;;;;3.05;1.40;;;6.70;99.90;;;;;;5092332;28;20209;-60
2024/01/02 02:30:10;;;;;;;3.28;1.60;;;6.70;99.90;;;;;;5092159;28;20307;-60
2024/01/02 02:32:37;;;;;;;2.75;1.35;;;6.70;99.90;;;;;;5092080;28;20205;-59
2024/01/02 02:35:05;;;;;;;4.65;1.30;;;6.70;99.90;;;;;;5091597;28;20292;-61
2024/01/02 02:37:32;;;;;;;2.67;1.88;;;6.60;99.90;;;;;;5091317;28;20288;-60
2024/01/02 02:40:00;;;;;;;4.55;1.77;;;6.60;99.90;;;;;;5091787;28;20328;-61
2024/01/02 02:42:27;;;;;;;5.88;2.08;;;6.60;99.90;;;;;;5092004;28;20299;-61
2024/01/02 02:44:53;;;;;;;2.10;1.50;;;6.60;99.90;;;;;;5086102;28;20287;-59
2024/01/02 02:47:21;;;;;;;3.50;1.30;;;6.60;99.90;;;;;;5091895;28;20215;-61
2024/01/02 02:49:49;;;;;;;1.35;1.23;;;6.60;99.90;;;;;;5091282;28;20335;-61
2024/01/02 02:52:16;;;;;;;6.18;1.48;;;6.50;99.90;;;;;;5091372;28;20667;-59
2024/01/02 02:54:43;;;;;;;9.23;1.90;;;6.60;99.90;;;;;;5091718;28;20671;-60
2024/01/02 02:57:11;;;;;;;3.63;1.15;;;6.60;99.90;;;;;;5091901;28;20209;-60
2024/01/02 02:59:38;;;;;;;2.50;1.10;;;6.50;99.90;;;;;;5089158;28;20710;-59
2024/01/02 03:02:05;;;;;;;2.78;1.05;;;6.50;99.90;;;;;;5092068;28;20203;-59
2024/01/02 03:04:32;;;;;;;3.03;1.13;;;6.50;99.90;;;;;;5091992;28;20695;-59
2024/01/02 03:06:58;;;;;;;5.07;1.15;;;6.50;99.90;;;;;;5092345;28;20207;-60
2024/01/02 03:09:25;;;;;;;1.25;1.10;;;6.50;99.90;;;;;;5092100;28;20649;-59
2024/01/02 03:11:52;;;;;;;5.45;1.40;;;6.50;99.90;;;;;;5092287;28;20296;-61
2024/01/02 03:14:20;;;;;;;1.85;0.90;;;6.50;99.90;;;;;;5092265;28;20291;-61
2024/01/02 03:16:47;;;;;;;1.45;1.35;;;6.40;99.90;;;;;;5092205;28;20212;-61
2024/01/02 03:19:14;;;;;;;2.58;1.05;;;6.40;99.90;;;;;;5091640;28;20263;-60
2024/01/02 03:21:41;;;;;;;3.17;2.50;;;6.40;99.90;;;;;;5092273;28;20323;-61
2024/01/02 03:24:08;;;;;;;4.00;1.40;;;6.50;99.90;;;;;;5091839;28;20320;-60
2024/01/02 03:26:35;;;;;;;4.72;2.63;;;6.40;99.90;;;;;;5091878;28;20207;-61
2024/01/02 03:29:01;;;;;;;2.10;2.00;;;6.40;99.90;;;;;;5091578;28;20208;-61
2024/01/02 03:31:30;;;;;;;4.20;1.20;;;6.40;99.90;;;;;;5091903;28;20248;-61
2024/01/02 03:33:56;;;;;;;1.13;1.00;;;6.40;99.90;;;;;;5091724;28;20648;-61
2024/01/02 03:36:23;;;;;;;2.58;1.50;;;6.40;99.90;;;;;;5091968;28;20315;-60
2024/01/02 03:38:51;;;;;;;5.50;2.35;;;6.30;99.90;;;;;;5091351;28;20291;-61
2024/01/02 03:41:18;;;;;;;3.50;0.90;;;6.40;99.90;;;;;;5091526;28;20212;-61
2024/01/02 03:43:45;;;;;;;3.35;1.48;;;6.40;99.90;;;;;;5091804;28;20225;-61
2024/01/02 03:46:13;;;;;;;1.33;0.80;;;6.40;99.90;;;;;;5091673;28;20295;-61
2024/01/02 03:48:41;;;;;;;2.72;2.03;;;6.40;99.90;;;;;;5090933;28;20204;-60
2024/01/02 03:51:08;;;;;;;2.78;1.42;;;6.40;99.90;;;;;;5091759;28;20319;-61
2024/01/02 03:53:35;;;;;;;1.98;1.85;;;6.40;99.90;;;;;;5091559;28;20207;-60
2024/01/02 03:56:02;;;;;;;2.28;1.30;;;6.40;99.90;;;;;;5091654;28;20296;-61
2024/01/02 03:58:30;;;;;;;2.35;1.10;;;6.40;99.90;;;;;;5091569;28;20209;-61
2024/01/02 04:00:57;;;;;;;4.55;1.50;;;6.40;99.90;;;;;;5091169;28;20232;-61
2024/01/02 04:03:25;;;;;;;3.15;1.92;;;6.40;99.90;;;;;;5090738;28;20647;-60
2024/01/02 04:05:54;;;;;;;1.70;1.35;;;6.40;99.90;;;;;;5091013;28;20201;-61
2024/01/02 04:08:20;;;;;;;4.05;1.40;;;6.30;99.90;;;;;;5091515;28;20197;-59
2024/01/02 04:10:47;;;;;;;2.55;0.90;;;6.40;99.90;;;;;;5091146;28;20217;-61
2024/01/02 04:13:14;;;;;;;1.52;1.17;;;6.30;99.90;;;;;;5091304;28;20295;-60
2024/01/02 04:15:41;;;;;;;2.90;1.50;;;6.30;99.90;;;;;;5091570;28;20205;-59
2024/01/02 04:18:08;;;;;;;1.30;1.10;;;6.30;99.90;;;;;;5091136;28;20204;-60
2024/01/02 04:20:35;;;;;;;6.93;1.10;;;6.20;99.90;;;;;;5091288;28;20232;-56
2024/01/02 04:23:03;;;;;;;1.27;0.88;;;6.30;99.90;;;;;;5091498;28;20771;-60
2024/01/02 04:25:30;;;;;;;3.40;2.00;;;6.30;99.90;;;;;;5090981;28;20209;-60
2024/01/02 04:27:57;;;;;;;1.25;0.90;;;6.30;99.90;;;;;;5090184;28;20547;-61
2024/01/02 04:30:24;;;;;;;5.70;1.35;;;6.30;99.90;;;;;;5091237;28;20272;-61
2024/01/02 04:32:51;;;;;;;1.65;1.00;;;6.30;99.90;;;;;;5091305;28;20212;-61
2024/01/02 04:35:19;;;;;;;0.85;0.85;;;6.30;99.90;;;;;;5091341;28;20292;-59
2024/01/02 04:37:46;;;;;;;1.38;0.80;;;6.30;99.90;;;;;;5091250;28;20292;-59
2024/01/02 04:40:14;;;;;;;3.38;1.00;;;6.30;99.90;;;;;;5090933;28;20648;-58
2024/01/02 04:42:41;;;;;;;1.98;1.88;;;6.30;99.90;;;;;;5091119;28;20205;-60
2024/01/02 04:45:09;;;;;;;2.45;1.35;;;6.30;99.90;;;;;;5091118;28;20301;-61
2024/01/02 04:47:36;;;;;;;0.95;0.80;;;6.30;99.90;;;;;;5091062;28;20209;-60
2024/01/02 04:50:04;;;;;;;0.70;0.68;;;6.30;99.90;;;;;;5090713;28;20244;-60
2024/01/02 04:52:31;;;;;;;0.95;0.95;;;6.30;99.90;;;;;;5091158;28;20288;-60
2024/01/02 04:54:59;;;;;;;0.75;0.60;;;6.30;99.90;;;;;;5091014;28;20232;-60
2024/01/02 04:57:27;;;;;;;1.55;0.63;;;6.30;99.90;;;;;;5090820;28;20292;-61
2024/01/02 04:59:54;;;;;;;2.25;0.80;;;6.30;99.90;;;;;;5092848;28;20225;-59
2024/01/02 05:02:22;;;;;;;1.27;1.08;;;6.30;99.90;;;;;;5094860;28;20586;-60
2024/01/02 05:04:49;;;;;;;1.30;1.20;;;6.40;99.90;;;;;;5094660;28;20221;-61
2024/01/02 05:07:16;;;;;;;3.20;1.55;;;6.40;99.90;;;;;;5094424;28;20626;-61
2024/01/02 05:09:43;;;;;;;1.70;1.13;;;6.40;99.90;;;;;;5094449;28;20595;-61
2024/01/02 05:12:10;;;;;;;2.08;1.30;;;6.30;99.90;;;;;;5094463;28;20211;-61
2024/01/02 05:14:38;;;;;;;1.75;0.75;;;6.30;99.90;;;;;;5094510;28;20204;-60
2024/01/02 05:17:06;;;;;;;1.10;1.05;;;6.30;99.90;;;;;;5094378;28;20295;-61
2024/01/02 05:19:33;;;;;;;0.80;0.68;;;6.40;99.90;;;;;;5094043;28;20312;-61
2024/01/02 05:22:00;;;;;;;2.25;0.70;;;6.40;99.90;;;;;;5094368;28;20395;-60
2024/01/02 05:24:27;;;;;;;0.77;0.77;;;6.40;99.90;;;;;;5094522;28;20229;-61
2024/01/02 05:26:54;;;;;;;0.93;0.75;;;6.40;99.90;;;;;;5094232;28;20205;-61
2024/01/02 05:29:20;;;;;;;0.90;0.90;;;6.40;99.90;;;;;;5093773;28;20221;-61
2024/01/02 05:31:49;;;;;;;1.02;0.88;;;6.40;99.90;;;;;;5094039;28;20205;-60
2024/01/02 05:34:15;;;;;;;1.95;1.85;;;6.40;99.90;;;;;;5094075;28;20249;-61
2024/01/02 05:36:44;;;;;;;1.10;0.60;;;6.40;99.90;;;;;;5093872;28;20211;-60
2024/01/02 05:39:11;;;;;;;0.98;0.68;;;6.40;99.90;;;;;;5093572;28;20259;-61
2024/01/02 05:41:38;;;;;;;1.05;0.95;;;6.40;99.90;;;;;;5093875;28;20254;-59
2024/01/02 05:44:05;;;;;;;0.50;0.50;;;6.40;99.90;;;;;;5093841;28;20224;-61
2024/01/02 05:46:31;;;;;;;0.70;0.63;;;6.40;99.90;;;;;;5093697;28;20296;-61
2024/01/02 05:49:00;;;;;;;0.80;0.63;;;6.30;99.90;;;;;;5093274;28;20205;-60
2024/01/02 05:51:27;;;;;;;0.85;0.75;;;6.30;99.90;;;;;;5093929;28;20653;-60
2024/01/02 05:53:54;;;;;;;0.70;0.60;;;6.30;99.90;;;;;;5093837;28;20205;-61
2024/01/02 05:56:21;;;;;;;2.50;0.90;;;6.40;99.90;;;;;;5093822;28;20200;-61
2024/01/02 05:58:48;;;;;;;1.10;0.80;;;6.40;99.90;;;;;;5093169;28;20754;-60
2024/01/02 06:01:15;;;;;;;1.05;0.80;;;6.40;99.90;;;;;;5093360;28;20273;-61
2024/01/02 06:03:41;;;;;;;0.50;0.50;;;6.40;99.90;;;;;;5093237;28;20296;-61
2024/01/02 06:06:10;;;;;;;0.60;0.60;;;6.40;99.90;;;;;;5093548;28;20292;-61
2024/01/02 06:08:36;;;;;;;0.70;0.70;;;6.30;99.90;;;;;;5093207;28;20212;-60
2024/01/02 06:11:03;;;;;;;0.40;0.40;;;6.40;99.90;;;;;;5093009;28;20735;-59
2024/01/02 06:13:30;;;;;;;1.40;0.52;;;6.40;99.90;;;;;;5093273;28;20212;-59
2024/01/02 06:15:57;;;;;;;1.25;0.70;;;6.40;99.90;;;;;;5093076;28;20645;-59
2024/01/02 06:18:24;;;;;;;1.15;0.63;;;6.40;99.90;;;;;;5093193;28;20209;-58
2024/01/02 06:20:51;;;;;;;0.73;0.73;;;6.40;99.90;;;;;;5093037;28;20247;-60
2024/01/02 06:23:19;;;;;;;0.95;0.50;;;6.40;99.90;;;;;;5093034;28;20296;-61
2024/01/02 06:25:46;;;;;;;2.45;0.90;;;6.40;99.90;;;;;;5092976;28;20318;-61
2024/01/02 06:28:12;;;;;;;1.10;1.00;;;6.50;99.90;;;;;;5092539;28;20288;-61
2024/01/02 06:30:39;;;;;;;4.32;0.73;;;6.50;99.90;;;;;;5092178;28;20727;-61
2024/01/02 06:33:06;;;;;;;1.05;0.73;;;6.50;99.90;;;;;;5093020;28;20205;-61
2024/01/02 06:35:33;;;;;;;1.80;0.90;;;6.50;99.90;;;;;;5092825;28;20217;-61
2024/01/02 06:37:59;;;;;;;0.73;0.73;;;6.50;99.90;;;;;;5092825;28;20205;-60
2024/01/02 06:40:28;;;;;;;0.60;0.60;;;6.50;99.90;;;;;;5092553;28;20229;-61
2024/01/02 06:42:55;;;;;;;2.70;0.70;;;6.50;99.90;;;;;;5092644;28;20205;-59
2024/01/02 06:45:21;;;;;;;5.53;0.90;;;6.50;99.90;;;;;;5092378;28;20221;-61
2024/01/02 06:47:48;;;;;;;0.60;0.60;;;6.50;99.90;;;;;;5092814;28;20862;-60
2024/01/02 06:50:16;;;;;;;1.30;1.00;;;6.50;99.90;;;;;;5091893;28;20239;-61
2024/01/02 06:52:43;;;;;;;0.60;0.60;;;6.50;99.90;;;;;;5091918;28;20701;-61
2024/01/02 06:55:10;;;;;;;1.08;0.90;;;6.50;99.90;;;;;;5092276;28;20201;-62
2024/01/02 06:57:39;;;;;;;1.95;0.80;;;6.50;99.90;;;;;;5092322;28;20231;-60
2024/01/02 07:00:07;;;;;;;1.20;0.60;;;6.50;99.90;;;;;;5092074;28;20791;-61
2024/01/02 07:02:34;;;;;;;1.00;0.85;;;6.50;99.90;;;;;;5092570;28;20291;-61
2024/01/02 07:05:01;;;;;;;1.20;1.15;;;6.60;99.90;;;;;;5092371;28;20340;-59
2024/01/02 07:07:28;;;;;;;1.27;1.17;;;6.60;99.90;;;;;;5092307;28;20293;-59
2024/01/02 07:09:54;;;;;;;0.70;0.70;;;6.60;99.90;;;;;;5092230;28;20247;-58
2024/01/02 07:12:21;;;;;;;1.60;0.80;;;6.60;99.90;;;;;;5092281;28;20296;-58
2024/01/02 07:14:49;;;;;;;0.82;0.60;;;6.60;99.90;;;;;;5092240;28;20291;-61
2024/01/02 07:17:19;;;;;;;0.60;0.60;;;6.60;99.90;;;;;;5092430;28;20213;-61
2024/01/02 07:19:46;;;;;;;1.20;1.10;;;6.60;99.90;;;;;;5091898;28;20225;-61
2024/01/02 07:22:13;;;;;;;1.38;0.80;;;6.70;99.90;;;;;;5091428;28;20212;-58
2024/01/02 07:24:40;;;;;;;2.08;0.65;;;6.70;99.90;;;;;;5091897;28;20332;-59
2024/01/02 07:27:07;;;;;;;0.50;0.50;;;6.70;99.90;;;;;;5091856;28;20306;-60
2024/01/02 07:29:34;;;;;;;1.38;0.80;;;6.70;99.90;;;;;;5091778;28;20316;-61
2024/01/02 07:32:02;;;;;;;0.98;0.80;;;6.70;99.90;;;;;;5092002;28;20212;-58
2024/01/02 07:34:29;;;;;;;1.00;1.00;;;6.70;99.90;;;;;;5091727;28;20208;-61
2024/01/02 07:36:56;;;;;;;0.80;0.80;;;6.70;99.90;;;;;;5091578;28;20204;-61
2024/01/02 07:39:24;;;;;;;2.30;1.60;;;6.70;99.90;;;;;;5091378;28;20225;-61
2024/01/02 07:41:50;;;;;;;1.48;1.40;;;6.80;99.90;;;;;;5091928;28;20645;-60
2024/01/02 07:44:17;;;;;;;4.85;4.38;;;6.70;99.90;;;;;;5091751;28;20208;-61
2024/01/02 07:46:44;;;;;;;4.10;3.53;;;6.80;99.90;;;;;;5091566;28;20672;-59
2024/01/02 07:49:12;;;;;;;2.28;1.20;;;6.80;99.90;;;;;;5091139;28;20232;-60
2024/01/02 07:51:39;;;;;;;0.77;0.77;;;6.80;99.90;;;;;;5091454;28;20212;-60
2024/01/02 07:54:06;;;;;;;1.60;1.30;;;6.90;99.90;;;;;;5090439;28;20208;-61
2024/01/02 07:56:33;;;;;;;0.80;0.80;;;6.90;99.90;;;;;;5090759;28;20205;-58
2024/01/02 07:59:00;;;;;;;0.95;0.95;;;6.90;99.90;;;;;;5091389;28;20295;-61
2024/01/02 08:01:27;;;;;;;0.98;0.80;;;6.90;99.90;;;;;;5091721;28;20291;-60
2024/01/02 08:03:54;;;;;;;0.98;0.98;;;6.90;99.90;;;;;;5091604;28;20589;-60
2024/01/02 08:06:22;;;;;;;0.80;0.80;;;6.90;99.90;;;;;;5091615;28;20779;-59
2024/01/02 08:08:51;;;;;;;1.10;1.00;;;6.90;99.90;;;;;;5091247;28;20262;-60
2024/01/02 08:11:18;;;;;;;1.20;1.10;;;6.90;99.90;;;;;;5091659;28;20254;-59
2024/01/02 08:13:45;;;;;;;0.75;0.75;;;6.90;99.90;;;;;;5091417;28;20201;-61
2024/01/02 08:16:12;;;;;;;0.60;0.60;;;7.00;99.90;;;;;;5091427;28;20292;-61
2024/01/02 08:18:41;;;;;;;1.23;1.23;;;7.00;99.90;;;;;;5091229;28;20208;-61
2024/01/02 08:21:08;;;;;;;1.20;1.10;;;7.00;99.90;;;;;;5091270;28;20320;-61
2024/01/02 08:23:38;;;;;;;1.42;1.20;;;7.00;99.90;;;;;;5091631;28;20216;-59
2024/01/02 08:26:06;;;;;;;1.50;1.40;;;7.00;99.90;;;;;;5091235;28;20240;-61
2024/01/02 08:28:33;;;;;;;0.80;0.80;;;7.00;99.90;;;;;;5091369;28;20691;-62
2024/01/02 08:31:00;;;;;;;1.75;1.33;;;7.00;99.90;;;;;;5091099;28;20229;-60
2024/01/02 08:33:27;;;;;;;1.92;1.10;;;7.00;99.90;;;;;;5092736;28;20212;-59
2024/01/02 08:35:54;;;;;;;1.08;0.75;;;7.10;99.90;;;;;;5094917;28;20676;-59
2024/01/02 08:38:21;;;;;;;0.80;0.80;;;7.10;99.90;;;;;;5094835;28;20299;-59
2024/01/02 08:40:51;;;;;;;1.20;1.10;;;7.10;99.90;;;;;;5094667;28;20221;-59
2024/01/02 08:43:18;;;;;;;0.80;0.80;;;7.10;99.90;;;;;;5095031;28;20205;-61
2024/01/02 08:45:45;;;;;;;2.92;2.72;;;7.10;99.90;;;;;;5094870;28;20225;-59
2024/01/02 08:48:12;;;;;;;3.08;2.78;;;7.10;99.90;;;;;;5094717;28;20212;-58
2024/01/02 08:50:41;;;;;;;1.55;1.45;;;7.10;99.90;;;;;;5094652;28;20237;-60
2024/01/02 08:53:08;;;;;;;8.98;8.30;;;7.20;99.90;;;;;;5094976;28;20213;-59
2024/01/02 08:55:35;;;;;;;1.10;1.10;;;7.20;99.90;;;;;;5094519;28;20201;-59
2024/01/02 08:58:04;;;;;;;6.25;5.85;;;7.20;99.90;;;;;;5094811;28;20204;-61
2024/01/02 09:00:31;;;;;;;2.05;1.85;;;7.20;99.90;;;;;;5094261;28;20731;-59
2024/01/02 09:02:58;;;;;;;0.90;0.90;;;7.30;99.90;;;;;;5094518;28;20299;-61
2024/01/02 09:05:26;;;;;;;1.45;1.35;;;7.30;99.90;;;;;;5094605;28;20225;-62
2024/01/02 09:07:53;;;;;;;2.65;1.65;;;7.30;99.90;;;;;;5094787;28;20299;-62
2024/01/02 09:10:20;;;;;;;1.73;1.63;;;7.40;99.90;;;;;;5094283;28;20312;-60
2024/01/02 09:12:46;;;;;;;4.90;4.18;;;7.40;99.90;;;;;;5094654;28;20296;-62
2024/01/02 09:15:15;;;;;;;6.90;6.03;;;7.40;99.90;;;;;;5094271;28;20201;-61
2024/01/02 09:17:42;;;;;;;1.90;1.80;;;7.50;99.90;;;;;;5094519;28;20200;-61
2024/01/02 09:20:11;;;;;;;2.40;2.20;;;7.50;99.90;;;;;;5093947;28;20770;-61
2024/01/02 09:22:38;;;;;;;4.05;2.50;;;7.60;99.90;;;;;;5094368;28;20209;-62
2024/01/02 09:25:05;;;;;;;2.42;2.20;;;7.60;99.90;;;;;;5094186;28;20229;-62
2024/01/02 09:27:35;;;;;;;1.95;1.45;;;7.60;99.90;;;;;;5094135;28;20223;-62
2024/01/02 09:30:04;;;;;;;1.40;1.13;;;7.70;99.90;;;;;;5093589;28;20336;-61
2024/01/02 09:32:33;;;;;;;4.25;2.22;;;7.70;99.90;;;;;;5094246;28;20249;-61
2024/01/02 09:35:00;;;;;;;1.75;1.10;;;7.80;99.90;;;;;;5094200;28;20200;-61
2024/01/02 09:37:27;;;;;;;1.23;0.95;;;7.80;99.90;;;;;;5093921;28;20300;-62
2024/01/02 09:39:54;;;;;;;1.52;1.40;;;7.80;99.90;;;;;;5093698;28;20315;-61
2024/01/02 09:42:38;;;;;;;1.80;0.70;;;7.80;99.90;;;;;;5085884;28;20227;-60
2024/01/02 09:45:17;;;;;;;2.30;2.05;;;7.90;99.90;;;;;;5084687;28;20225;-59
2024/01/02 09:48:04;;;;;;;1.60;1.50;;;8.00;99.90;;;;;;5091939;28;20212;-60
2024/01/02 09:50:35;;;;;;;1.45;1.35;;;8.00;99.90;;;;;;5087776;28;20866;-61
2024/01/02 09:53:32;;;;;;;1.00;0.70;;;8.00;99.90;;;;;;5093465;28;20220;-59
2024/01/02 09:56:06;;;;;;;2.58;1.48;;;8.10;99.90;;;;;;5092746;28;20209;-59
2024/01/02 09:58:43;;;;;;;2.70;2.13;;;8.20;99.90;;;;;;5092853;28;20262;-59
2024/01/02 10:01:17;;;;;;;0.75;0.75;;;8.20;99.90;;;;;;5091655;28;20874;-61
2024/01/02 10:04:16;;;;;;;0.90;0.90;;;8.20;99.90;;;;;;5092305;28;20208;-60
2024/01/02 10:07:10;;;;;;;1.00;0.97;;;8.30;99.90;;;;;;5087925;28;20710;-61
2024/01/02 10:10:00;;;;;;;1.05;0.85;;;8.30;99.90;;;;;;5088987;28;20454;-61
2024/01/02 10:12:35;;;;;;;0.75;0.73;;;8.30;99.90;;;;;;5091065;28;20288;-61
2024/01/02 10:15:16;;;;;;;0.68;0.68;;;8.30;99.90;;;;;;5090822;28;20291;-60
2024/01/02 10:17:54;;;;;;;1.00;1.00;;;8.40;99.90;;;;;;5092028;28;20209;-62
2024/01/02 10:20:38;;;;;;;0.75;0.75;;;8.40;99.90;;;;;;5087108;28;20233;-59
2024/01/02 10:23:10;;;;;;;0.63;0.63;;;8.40;99.90;;;;;;5091021;28;20689;-60
2024/01/02 10:25:37;;;;;;;0.82;0.82;;;8.40;99.90;;;;;;5085672;28;20407;-59
2024/01/02 10:28:20;;;;;;;1.50;1.30;;;8.50;99.90;;;;;;5088281;28;20216;-59
2024/01/02 10:30:53;;;;;;;0.82;0.73;;;8.50;99.90;;;;;;5088132;28;20601;-61
2024/01/02 10:33:28;;;;;;;0.80;0.80;;;8.50;99.90;;;;;;5074686;28;20206;-60
2024/01/02 10:36:02;;;;;;;0.60;0.60;;;8.50;99.90;;;;;;5085237;28;20284;-60
2024/01/02 10:38:40;;;;;;;0.65;0.60;;;8.50;99.90;;;;;;5088168;28;20235;-60
2024/01/02 10:41:17;;;;;;;0.87;0.50;;;8.50;99.90;;;;;;5081841;28;20616;-58
2024/01/02 10:43:55;;;;;;;0.70;0.70;;;8.50;99.90;;;;;;5082792;28;20530;-58
2024/01/02 10:46:35;;;;;;;0.88;0.88;;;8.60;99.90;;;;;;5090477;28;20312;-59
2024/01/02 10:49:16;;;;;;;0.90;0.85;;;8.60;99.90;;;;;;5085212;28;20292;-59
2024/01/02 10:51:51;;;;;;;0.70;0.70;;;8.60;99.90;;;;;;5090910;28;20201;-59
2024/01/02 10:54:24;;;;;;;0.68;0.68;;;8.70;99.90;;;;;;5085981;28;20291;-61
2024/01/02 10:57:00;;;;;;;2.83;0.60;;;8.70;99.90;;;;;;5089228;28;20293;-61
2024/01/02 10:59:50;;;;;;;0.60;0.60;;;8.70;99.90;;;;;;5076705;28;20664;-61
2024/01/02 11:02:35;;;;;;;0.40;0.40;;;8.70;99.90;;;;;;5083346;28;20815;-61
2024/01/02 11:05:11;;;;;;;0.40;0.40;;;8.70;99.90;;;;;;5081020;28;20207;-60
2024/01/02 11:07:42;;;;;;;0.50;0.45;;;8.70;99.90;;;;;;5084643;28;20602;-61
2024/01/02 11:10:10;;;;;;;0.37;0.37;;;8.80;99.90;;;;;;5087910;28;20263;-61
2024/01/02 11:12:48;;;;;;;0.87;0.40;;;8.80;99.90;;;;;;5080571;28;20945;-60
2024/01/02 11:15:16;;;;;;;0.30;0.30;;;8.80;99.90;;;;;;5085375;28;20451;-61
2024/01/02 11:17:44;;;;;;;0.40;0.40;;;8.80;99.90;;;;;;5091418;28;20450;-61
2024/01/02 11:20:14;;;;;;;1.67;1.58;;;8.90;99.90;;;;;;5078006;28;20472;-61
2024/01/02 11:22:51;;;;;;;0.50;0.50;;;8.90;99.90;;;;;;5086820;28;20209;-61
2024/01/02 11:25:22;;;;;;;0.70;0.70;;;8.90;99.90;;;;;;5087217;28;20458;-59
2024/01/02 11:27:52;;;;;;;0.40;0.40;;;8.90;99.90;;;;;;5075993;28;20444;-61
2024/01/02 11:30:21;;;;;;;1.02;1.02;;;8.90;99.90;;;;;;5089527;28;20227;-61
2024/01/02 11:33:00;;;;;;;0.70;0.70;;;8.90;99.90;;;;;;5075849;28;20204;-61
2024/01/02 11:35:31;;;;;;;0.45;0.45;;;8.90;99.90;;;;;;5086070;28;20205;-61
2024/01/02 11:38:10;;;;;;;0.35;0.35;;;8.90;99.90;;;;;;5091038;28;20560;-61
2024/01/02 11:40:48;;;;;;;0.30;0.30;;;9.00;99.90;;;;;;5083509;28;20230;-60
2024/01/02 11:43:24;;;;;;;0.60;0.60;;;9.00;99.90;;;;;;5079702;28;20535;-61
2024/01/02 11:45:57;;;;;;;1.20;0.40;;;9.00;99.90;;;;;;5083437;28;20859;-61
2024/01/02 11:48:36;;;;;;;0.50;0.40;;;9.00;99.90;;;;;;5091177;28;20834;-61
2024/01/02 11:51:09;;;;;;;0.95;0.45;;;9.00;99.90;;;;;;5086979;28;20502;-58
2024/01/02 11:53:56;;;;;;;0.50;0.50;;;9.00;99.90;;;;;;5077754;28;20197;-59
2024/01/02 11:56:24;;;;;;;1.00;1.00;;;9.10;99.90;;;;;;5090965;28;20212;-60
2024/01/02 11:59:04;;;;;;;0.83;0.40;;;9.10;99.90;;;;;;5077785;28;20522;-59
2024/01/02 12:01:41;;;;;;;0.67;0.60;;;9.10;99.90;;;;;;5085535;28;20447;-61
2024/01/02 12:04:15;;;;;;;0.50;0.50;;;9.10;99.90;;;;;;5089214;28;20441;-59
2024/01/02 12:06:49;;;;;;;0.63;0.50;;;9.10;99.90;;;;;;5077598;28;20487;-61
2024/01/02 12:09:19;;;;;;;0.50;0.50;;;9.10;99.90;;;;;;5086724;28;20468;-60
2024/01/02 12:11:51;;;;;;;0.70;0.70;;;9.10;99.90;;;;;;5079181;28;20819;-59
2024/01/02 12:14:30;;;;;;;0.67;0.63;;;9.00;99.90;;;;;;5076000;28;20444;-60
2024/01/02 12:17:01;;;;;;;0.50;0.50;;;9.00;99.90;;;;;;5094282;28;20517;-61
2024/01/02 12:19:29;;;;;;;1.00;1.00;;;9.00;99.90;;;;;;5093480;28;20232;-61
2024/01/02 12:21:56;;;;;;;1.80;0.80;;;9.00;99.90;;;;;;5082406;28;20455;-60
2024/01/02 12:24:29;;;;;;;1.13;1.13;;;9.00;99.90;;;;;;5092373;28;20446;-61
2024/01/02 12:26:56;;;;;;;3.00;1.40;;;9.00;99.90;;;;;;5094458;28;20478;-58
2024/01/02 12:29:50;;;;;;;1.30;1.20;;;9.00;99.90;;;;;;5084890;28;20463;-60
2024/01/02 12:32:27;;;;;;;1.13;1.13;;;8.90;99.90;;;;;;5090383;28;20443;-59
2024/01/02 12:35:02;;;;;;;3.80;3.50;;;9.00;99.90;;;;;;5094511;28;20438;-61
2024/01/02 12:37:36;;;;;;;1.40;1.30;;;9.00;99.90;;;;;;5093321;28;20240;-59
2024/01/02 12:40:10;;;;;;;2.03;1.80;;;8.90;99.90;;;;;;5093599;28;20558;-61
2024/01/02 12:42:38;;;;;;;2.03;1.50;;;8.90;99.90;;;;;;5094385;28;20258;-61
2024/01/02 12:45:11;;;;;;;1.07;1.00;;;8.90;99.90;;;;;;5082994;28;20452;-61
2024/01/02 12:47:43;;;;;;;1.27;0.67;;;8.90;99.90;;;;;;5086780;28;20570;-61
2024/01/02 12:50:11;;;;;;;0.90;0.90;;;8.90;99.90;;;;;;5093542;28;20570;-59
2024/01/02 12:52:40;;;;;;;0.67;0.67;;;8.80;99.90;;;;;;5094111;28;20311;-58
2024/01/02 12:55:12;;;;;;;1.25;0.90;;;8.80;99.90;;;;;;5074612;28;20983;-60
2024/01/02 12:57:40;;;;;;;1.63;1.13;;;8.80;99.90;;;;;;5076549;28;20298;-59
2024/01/02 13:00:12;;;;;;;1.20;1.10;;;8.80;99.90;;;;;;5084829;28;20762;-60
2024/01/02 13:02:39;;;;;;;1.42;0.90;;;8.80;99.90;;;;;;5076623;28;20479;-58
2024/01/02 13:05:08;;;;;;;1.03;0.80;;;8.80;99.90;;;;;;5075620;28;20247;-60
2024/01/02 13:07:36;;;;;;;1.92;1.83;;;8.80;99.90;;;;;;5086441;28;20492;-61